createdAt,value
2023-01-12T00:00:46.843Z,992.89
2023-01-12T00:01:46.849Z,992.89
2023-01-12T00:02:46.852Z,992.81
2023-01-12T00:03:46.825Z,992.91
2023-01-12T00:04:46.815Z,992.84
2023-01-12T00:05:46.810Z,992.72
2023-01-12T00:06:46.818Z,992.83
2023-01-12T00:07:46.791Z,992.79
2023-01-12T00:08:46.765Z,992.77
2023-01-12T00:09:46.774Z,992.78
2023-01-12T00:10:46.752Z,992.80
2023-01-12T00:11:46.749Z,992.93
2023-01-12T00:12:46.716Z,992.82
2023-01-12T00:13:46.717Z,992.87
2023-01-12T00:14:46.699Z,992.92
2023-01-12T00:15:46.756Z,992.76
2023-01-12T00:16:46.713Z,992.88
2023-01-12T00:17:46.687Z,992.70
2023-01-12T00:18:46.661Z,992.65
2023-01-12T00:19:46.666Z,992.68
2023-01-12T00:20:46.661Z,992.76
2023-01-12T00:21:46.670Z,992.72
2023-01-12T00:22:46.619Z,992.62
2023-01-12T00:23:46.610Z,992.69
2023-01-12T00:24:46.604Z,992.84
2023-01-12T00:25:46.600Z,992.71
2023-01-12T00:26:46.580Z,992.75
2023-01-12T00:27:46.570Z,992.66
2023-01-12T00:28:46.559Z,992.61
2023-01-12T00:29:46.555Z,992.76
2023-01-12T00:30:46.553Z,992.72
2023-01-12T00:31:46.524Z,992.85
2023-01-12T00:32:46.514Z,992.58
2023-01-12T00:33:46.506Z,992.69
2023-01-12T00:34:46.507Z,992.59
2023-01-12T00:35:46.499Z,992.72
2023-01-12T00:36:46.478Z,992.57
2023-01-12T00:37:46.464Z,992.69
2023-01-12T00:38:46.454Z,992.67
2023-01-12T00:40:01.021Z,992.73
2023-01-12T00:40:47.448Z,992.75
2023-01-12T00:41:46.428Z,992.66
2023-01-12T00:42:46.412Z,992.73
2023-01-12T00:43:46.403Z,992.82
2023-01-12T00:44:46.406Z,992.75
2023-01-12T00:45:46.414Z,992.74
2023-01-12T00:46:46.395Z,992.74
2023-01-12T00:47:46.361Z,992.63
2023-01-12T00:48:46.348Z,992.72
2023-01-12T00:49:46.344Z,992.65
2023-01-12T00:50:46.351Z,992.66
2023-01-12T00:51:46.319Z,992.58
2023-01-12T00:52:46.306Z,992.64
2023-01-12T00:53:46.299Z,992.64
2023-01-12T00:54:46.289Z,992.61
2023-01-12T00:55:46.290Z,992.60
2023-01-12T00:56:46.267Z,992.58
2023-01-12T00:57:46.267Z,992.61
2023-01-12T00:58:46.239Z,992.57
2023-01-12T00:59:46.240Z,992.56
2023-01-12T01:00:46.235Z,992.62
2023-01-12T01:01:46.310Z,992.52
2023-01-12T01:02:46.248Z,992.56
2023-01-12T01:03:46.200Z,992.59
2023-01-12T01:04:46.175Z,992.53
2023-01-12T01:05:46.183Z,992.60
2023-01-12T01:06:46.170Z,992.57
2023-01-12T01:07:46.153Z,992.64
2023-01-12T01:08:46.138Z,992.60
2023-01-12T01:09:46.143Z,992.61
2023-01-12T01:10:46.128Z,992.70
2023-01-12T01:11:46.119Z,992.66
2023-01-12T01:12:46.107Z,992.70
2023-01-12T01:13:46.096Z,992.63
2023-01-12T01:14:46.078Z,992.85
2023-01-12T01:15:46.113Z,992.69
2023-01-12T01:16:46.061Z,992.68
2023-01-12T01:17:46.053Z,992.64
2023-01-12T01:18:46.041Z,992.78
2023-01-12T01:19:46.049Z,992.63
2023-01-12T01:20:46.029Z,992.66
2023-01-12T01:21:46.017Z,992.63
2023-01-12T01:22:45.987Z,992.64
2023-01-12T01:23:45.988Z,992.61
2023-01-12T01:24:46.027Z,992.53
2023-01-12T01:25:45.979Z,992.57
2023-01-12T01:26:45.952Z,992.58
2023-01-12T01:27:45.939Z,992.50
2023-01-12T01:28:45.929Z,992.53
2023-01-12T01:29:45.930Z,992.61
2023-01-12T01:30:46.087Z,992.64
2023-01-12T01:31:45.900Z,992.59
2023-01-12T01:32:45.891Z,992.55
2023-01-12T01:33:45.881Z,992.52
2023-01-12T01:34:45.869Z,992.55
2023-01-12T01:35:45.871Z,992.71
2023-01-12T01:36:45.841Z,992.74
2023-01-12T01:37:45.865Z,992.61
2023-01-12T01:38:45.824Z,992.56
2023-01-12T01:39:45.821Z,992.61
2023-01-12T01:40:45.831Z,992.55
2023-01-12T01:41:45.796Z,992.62
2023-01-12T01:42:45.783Z,992.55
2023-01-12T01:43:45.772Z,992.71
2023-01-12T01:44:45.772Z,992.53
2023-01-12T01:45:45.764Z,992.63
2023-01-12T01:46:45.807Z,992.57
2023-01-12T01:47:45.734Z,992.64
2023-01-12T01:48:45.731Z,992.56
2023-01-12T01:49:45.727Z,992.75
2023-01-12T01:50:45.714Z,992.65
2023-01-12T01:51:45.695Z,992.48
2023-01-12T01:52:45.711Z,992.53
2023-01-12T01:53:45.676Z,992.48
2023-01-12T01:54:45.659Z,992.45
2023-01-12T01:55:45.667Z,992.42
2023-01-12T01:56:45.648Z,992.53
2023-01-12T01:57:45.628Z,992.40
2023-01-12T01:58:45.618Z,992.44
2023-01-12T01:59:45.606Z,992.37
2023-01-12T02:00:45.609Z,992.39
2023-01-12T02:01:45.660Z,992.26
2023-01-12T02:02:45.648Z,992.39
2023-01-12T02:03:45.559Z,992.35
2023-01-12T02:04:45.557Z,992.35
2023-01-12T02:05:45.550Z,992.32
2023-01-12T02:06:45.535Z,992.35
2023-01-12T02:07:45.521Z,992.32
2023-01-12T02:08:45.523Z,992.28
2023-01-12T02:09:45.512Z,992.27
2023-01-12T02:10:45.503Z,992.35
2023-01-12T02:11:45.488Z,992.32
2023-01-12T02:12:45.474Z,992.39
2023-01-12T02:13:45.464Z,992.28
2023-01-12T02:14:45.453Z,992.33
2023-01-12T02:15:45.474Z,992.33
2023-01-12T02:16:45.433Z,992.30
2023-01-12T02:17:45.413Z,992.31
2023-01-12T02:18:45.404Z,992.28
2023-01-12T02:19:45.395Z,992.37
2023-01-12T02:20:45.403Z,992.31
2023-01-12T02:21:45.375Z,992.23
2023-01-12T02:22:45.379Z,992.20
2023-01-12T02:23:45.353Z,992.28
2023-01-12T02:24:45.357Z,992.21
2023-01-12T02:25:45.347Z,992.22
2023-01-12T02:26:45.324Z,992.31
2023-01-12T02:27:45.316Z,992.29
2023-01-12T02:28:45.308Z,992.23
2023-01-12T02:29:45.298Z,992.27
2023-01-12T02:30:45.300Z,992.18
2023-01-12T02:31:45.272Z,992.16
2023-01-12T02:32:45.268Z,992.14
2023-01-12T02:33:45.248Z,992.17
2023-01-12T02:34:45.251Z,992.19
2023-01-12T02:35:45.251Z,992.16
2023-01-12T02:36:45.220Z,992.18
2023-01-12T02:37:45.214Z,992.06
2023-01-12T02:38:45.205Z,992.08
2023-01-12T02:39:45.193Z,992.09
2023-01-12T02:40:45.204Z,992.25
2023-01-12T02:41:45.165Z,992.15
2023-01-12T02:42:45.171Z,992.19
2023-01-12T02:43:45.161Z,992.07
2023-01-12T02:44:45.153Z,992.05
2023-01-12T02:45:45.138Z,992.04
2023-01-12T02:46:45.164Z,991.99
2023-01-12T02:47:45.106Z,991.98
2023-01-12T02:48:45.094Z,991.89
2023-01-12T02:49:45.088Z,991.92
2023-01-12T02:50:45.089Z,992.03
2023-01-12T02:51:45.064Z,992.04
2023-01-12T02:52:45.063Z,992.00
2023-01-12T02:53:45.044Z,991.88
2023-01-12T02:54:45.042Z,991.83
2023-01-12T02:55:45.035Z,991.95
2023-01-12T02:56:45.015Z,991.90
2023-01-12T02:57:45.003Z,991.89
2023-01-12T02:58:44.993Z,992.00
2023-01-12T02:59:44.998Z,991.86
2023-01-12T03:00:45.055Z,991.84
2023-01-12T03:01:45.023Z,991.82
2023-01-12T03:02:45.029Z,991.82
2023-01-12T03:03:44.950Z,991.85
2023-01-12T03:04:44.928Z,991.85
2023-01-12T03:05:44.928Z,991.85
2023-01-12T03:06:44.928Z,991.95
2023-01-12T03:07:44.896Z,991.87
2023-01-12T03:08:44.900Z,991.80
2023-01-12T03:09:44.871Z,991.83
2023-01-12T03:10:44.883Z,991.84
2023-01-12T03:11:44.851Z,991.81
2023-01-12T03:12:44.858Z,991.81
2023-01-12T03:13:44.836Z,991.85
2023-01-12T03:14:44.833Z,991.80
2023-01-12T03:15:44.829Z,991.72
2023-01-12T03:16:44.804Z,991.84
2023-01-12T03:17:44.808Z,991.76
2023-01-12T03:18:44.783Z,991.76
2023-01-12T03:19:44.773Z,991.64
2023-01-12T03:20:44.780Z,991.61
2023-01-12T03:21:44.755Z,991.62
2023-01-12T03:22:44.742Z,991.63
2023-01-12T03:23:44.738Z,991.71
2023-01-12T03:24:44.723Z,991.71
2023-01-12T03:25:44.731Z,991.76
2023-01-12T03:26:44.702Z,991.73
2023-01-12T03:27:44.685Z,991.69
2023-01-12T03:28:44.676Z,991.68
2023-01-12T03:29:44.666Z,991.72
2023-01-12T03:30:44.699Z,991.71
2023-01-12T03:31:44.656Z,991.61
2023-01-12T03:32:44.647Z,991.66
2023-01-12T03:33:44.640Z,991.60
2023-01-12T03:34:44.616Z,991.61
2023-01-12T03:35:44.623Z,991.62
2023-01-12T03:36:44.593Z,991.61
2023-01-12T03:37:44.595Z,991.60
2023-01-12T03:38:44.585Z,991.67
2023-01-12T03:39:44.567Z,991.59
2023-01-12T03:40:44.570Z,991.57
2023-01-12T03:41:44.542Z,991.55
2023-01-12T03:42:44.544Z,991.58
2023-01-12T03:43:44.524Z,991.54
2023-01-12T03:44:44.519Z,991.58
2023-01-12T03:45:44.504Z,991.55
2023-01-12T03:46:44.584Z,991.49
2023-01-12T03:47:44.483Z,991.55
2023-01-12T03:48:44.482Z,991.53
2023-01-12T03:49:44.459Z,991.52
2023-01-12T03:50:44.452Z,991.45
2023-01-12T03:51:44.451Z,991.55
2023-01-12T03:52:44.428Z,991.60
2023-01-12T03:53:44.431Z,991.57
2023-01-12T03:54:44.421Z,991.61
2023-01-12T03:55:44.395Z,991.60
2023-01-12T03:56:44.401Z,991.48
2023-01-12T03:57:44.392Z,991.57
2023-01-12T03:58:44.371Z,991.44
2023-01-12T03:59:44.356Z,991.47
2023-01-12T04:00:44.382Z,991.56
2023-01-12T04:01:44.419Z,991.53
2023-01-12T04:02:44.324Z,991.56
2023-01-12T04:03:44.327Z,991.52
2023-01-12T04:04:44.314Z,991.49
2023-01-12T04:05:44.322Z,991.49
2023-01-12T04:06:44.296Z,991.46
2023-01-12T04:07:44.273Z,991.48
2023-01-12T04:08:44.258Z,991.53
2023-01-12T04:09:44.238Z,991.48
2023-01-12T04:10:44.239Z,991.43
2023-01-12T04:11:44.233Z,991.56
2023-01-12T04:12:44.230Z,991.43
2023-01-12T04:13:44.200Z,991.48
2023-01-12T04:14:46.865Z,991.46
2023-01-12T04:15:44.205Z,991.54
2023-01-12T04:16:44.188Z,991.55
2023-01-12T04:17:44.158Z,991.59
2023-01-12T04:18:44.156Z,991.60
2023-01-12T04:19:44.144Z,991.56
2023-01-12T04:20:44.137Z,991.55
2023-01-12T04:21:44.141Z,991.43
2023-01-12T04:22:44.129Z,991.55
2023-01-12T04:23:44.099Z,991.61
2023-01-12T04:24:44.094Z,991.52
2023-01-12T04:25:44.085Z,991.55
2023-01-12T04:26:44.083Z,991.55
2023-01-12T04:27:44.055Z,991.61
2023-01-12T04:28:44.064Z,991.53
2023-01-12T04:29:44.033Z,991.50
2023-01-12T04:30:44.040Z,991.45
2023-01-12T04:31:44.079Z,991.45
2023-01-12T04:32:44.034Z,991.39
2023-01-12T04:33:43.994Z,991.30
2023-01-12T04:34:43.989Z,991.42
2023-01-12T04:35:43.978Z,991.28
2023-01-12T04:36:43.997Z,991.30
2023-01-12T04:37:43.956Z,991.29
2023-01-12T04:38:43.937Z,991.31
2023-01-12T04:39:43.934Z,991.27
2023-01-12T04:40:43.924Z,991.24
2023-01-12T04:41:43.944Z,991.26
2023-01-12T04:42:43.926Z,991.27
2023-01-12T04:43:43.898Z,991.24
2023-01-12T04:44:43.885Z,991.27
2023-01-12T04:45:44.059Z,991.29
2023-01-12T04:46:43.876Z,991.29
2023-01-12T04:47:43.842Z,991.24
2023-01-12T04:48:43.849Z,991.30
2023-01-12T04:49:43.832Z,991.26
2023-01-12T04:50:43.820Z,991.29
2023-01-12T04:51:43.811Z,991.26
2023-01-12T04:52:43.803Z,991.21
2023-01-12T04:53:43.824Z,991.19
2023-01-12T04:54:43.780Z,991.29
2023-01-12T04:55:43.784Z,991.24
2023-01-12T04:56:43.779Z,991.16
2023-01-12T04:57:43.742Z,991.23
2023-01-12T04:58:43.733Z,991.28
2023-01-12T04:59:43.718Z,991.20
2023-01-12T05:00:43.728Z,991.14
2023-01-12T05:01:43.792Z,991.09
2023-01-12T05:02:43.693Z,991.09
2023-01-12T05:03:43.718Z,991.11
2023-01-12T05:04:43.669Z,991.03
2023-01-12T05:05:43.657Z,991.05
2023-01-12T05:06:43.665Z,991.01
2023-01-12T05:07:43.637Z,990.95
2023-01-12T05:08:43.627Z,990.91
2023-01-12T05:09:43.613Z,990.91
2023-01-12T05:10:43.608Z,990.95
2023-01-12T05:11:43.616Z,990.96
2023-01-12T05:12:43.598Z,990.91
2023-01-12T05:13:43.571Z,990.84
2023-01-12T05:14:43.574Z,990.80
2023-01-12T05:15:43.556Z,990.84
2023-01-12T05:16:43.626Z,990.81
2023-01-12T05:17:43.527Z,990.91
2023-01-12T05:18:43.519Z,990.77
2023-01-12T05:19:43.507Z,990.78
2023-01-12T05:20:43.511Z,990.77
2023-01-12T05:21:43.503Z,990.79
2023-01-12T05:22:43.477Z,990.74
2023-01-12T05:23:43.466Z,990.76
2023-01-12T05:24:43.464Z,990.70
2023-01-12T05:25:43.444Z,990.76
2023-01-12T05:26:43.451Z,990.70
2023-01-12T05:27:43.426Z,990.72
2023-01-12T05:28:43.421Z,990.74
2023-01-12T05:29:43.411Z,990.60
2023-01-12T05:30:43.463Z,990.71
2023-01-12T05:31:43.392Z,990.52
2023-01-12T05:32:43.374Z,990.66
2023-01-12T05:33:43.400Z,990.64
2023-01-12T05:34:43.383Z,990.59
2023-01-12T05:35:43.339Z,990.59
2023-01-12T05:36:43.355Z,990.62
2023-01-12T05:37:43.325Z,990.60
2023-01-12T05:38:43.337Z,990.55
2023-01-12T05:39:43.297Z,990.56
2023-01-12T05:40:43.294Z,990.60
2023-01-12T05:41:43.287Z,990.55
2023-01-12T05:42:43.270Z,990.53
2023-01-12T05:43:43.248Z,990.55
2023-01-12T05:44:43.245Z,990.53
2023-01-12T05:45:43.279Z,990.49
2023-01-12T05:46:43.239Z,990.41
2023-01-12T05:47:43.217Z,990.42
2023-01-12T05:48:43.199Z,990.48
2023-01-12T05:49:43.189Z,990.39
2023-01-12T05:50:43.179Z,990.37
2023-01-12T05:51:43.179Z,990.47
2023-01-12T05:52:43.160Z,990.41
2023-01-12T05:53:43.141Z,990.35
2023-01-12T05:54:43.141Z,990.33
2023-01-12T05:55:43.137Z,990.30
2023-01-12T05:56:43.136Z,990.37
2023-01-12T05:57:43.113Z,990.28
2023-01-12T05:58:43.103Z,990.13
2023-01-12T05:59:43.088Z,990.14
2023-01-12T06:00:43.075Z,990.23
2023-01-12T06:01:43.079Z,990.27
2023-01-12T06:02:43.054Z,990.23
2023-01-12T06:03:43.049Z,990.23
2023-01-12T06:04:43.117Z,990.10
2023-01-12T06:05:43.027Z,990.29
2023-01-12T06:06:43.028Z,990.22
2023-01-12T06:07:43.018Z,990.22
2023-01-12T06:08:42.985Z,990.26
2023-01-12T06:09:42.975Z,990.10
2023-01-12T06:10:42.970Z,990.21
2023-01-12T06:11:42.980Z,990.17
2023-01-12T06:12:42.951Z,990.09
2023-01-12T06:13:42.937Z,990.05
2023-01-12T06:14:42.924Z,989.95
2023-01-12T06:15:42.966Z,990.02
2023-01-12T06:16:42.907Z,989.97
2023-01-12T06:17:42.898Z,990.06
2023-01-12T06:18:42.881Z,990.00
2023-01-12T06:19:42.884Z,989.90
2023-01-12T06:20:42.862Z,989.85
2023-01-12T06:21:42.881Z,990.02
2023-01-12T06:22:42.847Z,989.86
2023-01-12T06:23:42.830Z,989.93
2023-01-12T06:24:42.822Z,989.95
2023-01-12T06:25:42.825Z,989.82
2023-01-12T06:26:42.809Z,989.83
2023-01-12T06:27:42.791Z,989.86
2023-01-12T06:28:42.785Z,989.76
2023-01-12T06:29:42.772Z,989.85
2023-01-12T06:30:42.756Z,989.70
2023-01-12T06:31:42.765Z,989.73
2023-01-12T06:32:42.741Z,989.79
2023-01-12T06:33:42.743Z,989.81
2023-01-12T06:34:42.714Z,989.74
2023-01-12T06:35:42.708Z,989.73
2023-01-12T06:36:42.694Z,989.69
2023-01-12T06:37:42.736Z,989.75
2023-01-12T06:38:42.669Z,989.75
2023-01-12T06:39:42.684Z,989.80
2023-01-12T06:40:42.654Z,989.80
2023-01-12T06:41:42.647Z,989.75
2023-01-12T06:42:42.644Z,989.89
2023-01-12T06:43:42.625Z,989.64
2023-01-12T06:44:42.610Z,989.64
2023-01-12T06:45:42.608Z,989.60
2023-01-12T06:46:42.588Z,989.75
2023-01-12T06:47:42.589Z,989.65
2023-01-12T06:48:42.568Z,989.65
2023-01-12T06:49:42.563Z,989.62
2023-01-12T06:50:42.544Z,989.66
2023-01-12T06:51:42.539Z,989.59
2023-01-12T06:52:42.531Z,989.65
2023-01-12T06:53:42.526Z,989.57
2023-01-12T06:54:42.503Z,989.56
2023-01-12T06:55:42.501Z,989.59
2023-01-12T06:56:42.481Z,989.40
2023-01-12T06:57:42.492Z,989.56
2023-01-12T06:58:42.460Z,989.49
2023-01-12T06:59:42.453Z,989.45
2023-01-12T07:00:42.474Z,989.51
2023-01-12T07:01:42.514Z,989.53
2023-01-12T07:02:42.424Z,989.56
2023-01-12T07:03:42.413Z,989.44
2023-01-12T07:04:42.444Z,989.48
2023-01-12T07:05:42.390Z,989.56
2023-01-12T07:06:42.380Z,989.42
2023-01-12T07:07:42.446Z,989.49
2023-01-12T07:08:42.359Z,989.44
2023-01-12T07:09:42.362Z,989.41
2023-01-12T07:10:42.309Z,989.41
2023-01-12T07:11:42.264Z,989.39
2023-01-12T07:12:42.276Z,989.47
2023-01-12T07:13:42.244Z,989.44
2023-01-12T07:14:42.265Z,989.46
2023-01-12T07:15:42.318Z,989.44
2023-01-12T07:16:42.275Z,989.42
2023-01-12T07:17:42.228Z,989.53
2023-01-12T07:18:42.247Z,989.44
2023-01-12T07:19:42.270Z,989.32
2023-01-12T07:20:42.235Z,989.38
2023-01-12T07:21:42.219Z,989.45
2023-01-12T07:22:42.218Z,989.43
2023-01-12T07:23:42.159Z,989.43
2023-01-12T07:24:42.139Z,989.36
2023-01-12T07:25:42.123Z,989.47
2023-01-12T07:26:42.111Z,989.35
2023-01-12T07:27:42.114Z,989.36
2023-01-12T07:28:42.152Z,989.44
2023-01-12T07:29:42.137Z,989.15
2023-01-12T07:30:42.086Z,989.33
2023-01-12T07:31:42.062Z,989.26
2023-01-12T07:32:42.057Z,989.18
2023-01-12T07:33:42.041Z,989.27
2023-01-12T07:34:42.021Z,989.22
2023-01-12T07:35:42.013Z,989.14
2023-01-12T07:36:42.004Z,989.19
2023-01-12T07:37:42.015Z,989.22
2023-01-12T07:38:41.984Z,989.20
2023-01-12T07:39:41.976Z,989.17
2023-01-12T07:40:41.976Z,989.12
2023-01-12T07:41:41.964Z,989.13
2023-01-12T07:42:41.958Z,989.04
2023-01-12T07:43:41.937Z,989.13
2023-01-12T07:44:41.926Z,989.15
2023-01-12T07:45:41.928Z,989.24
2023-01-12T07:46:41.929Z,989.20
2023-01-12T07:47:41.908Z,989.18
2023-01-12T07:48:41.877Z,989.22
2023-01-12T07:49:41.874Z,989.16
2023-01-12T07:50:41.859Z,989.19
2023-01-12T07:51:41.849Z,989.25
2023-01-12T07:52:41.853Z,989.17
2023-01-12T07:53:41.829Z,989.24
2023-01-12T07:54:41.828Z,989.20
2023-01-12T07:55:41.820Z,989.13
2023-01-12T07:56:44.133Z,989.09
2023-01-12T07:57:41.820Z,989.15
2023-01-12T07:58:41.771Z,989.27
2023-01-12T07:59:41.765Z,989.16
2023-01-12T08:00:41.756Z,989.12
2023-01-12T08:01:41.764Z,989.25
2023-01-12T08:02:41.743Z,989.14
2023-01-12T08:03:41.726Z,989.24
2023-01-12T08:04:41.717Z,989.18
2023-01-12T08:05:41.776Z,989.26
2023-01-12T08:06:41.684Z,989.08
2023-01-12T08:07:41.699Z,989.15
2023-01-12T08:08:41.668Z,989.12
2023-01-12T08:09:41.693Z,989.17
2023-01-12T08:10:41.643Z,988.90
2023-01-12T08:11:41.642Z,989.10
2023-01-12T08:12:41.634Z,989.13
2023-01-12T08:13:41.632Z,989.27
2023-01-12T08:14:41.616Z,989.14
2023-01-12T08:15:41.595Z,989.16
2023-01-12T08:16:41.606Z,989.16
2023-01-12T08:17:41.588Z,989.24
2023-01-12T08:18:41.567Z,989.11
2023-01-12T08:19:41.558Z,989.07
2023-01-12T08:20:41.542Z,989.18
2023-01-12T08:21:41.549Z,989.26
2023-01-12T08:22:41.529Z,989.23
2023-01-12T08:23:41.989Z,989.12
2023-01-12T08:24:41.503Z,989.07
2023-01-12T08:25:41.488Z,989.11
2023-01-12T08:26:41.479Z,989.20
2023-01-12T08:27:41.484Z,989.23
2023-01-12T08:28:41.472Z,989.24
2023-01-12T08:29:41.452Z,989.10
2023-01-12T08:30:41.431Z,989.07
2023-01-12T08:31:41.438Z,989.14
2023-01-12T08:32:41.419Z,989.07
2023-01-12T08:33:41.409Z,989.22
2023-01-12T08:34:41.389Z,989.16
2023-01-12T08:35:41.400Z,989.19
2023-01-12T08:36:43.046Z,989.10
2023-01-12T08:37:41.363Z,989.10
2023-01-12T08:38:41.367Z,989.03
2023-01-12T08:39:41.340Z,989.14
2023-01-12T08:40:41.340Z,989.22
2023-01-12T08:41:41.346Z,988.98
2023-01-12T08:42:41.319Z,988.90
2023-01-12T08:43:41.335Z,988.99
2023-01-12T08:44:41.291Z,989.01
2023-01-12T08:45:41.296Z,989.06
2023-01-12T08:46:41.343Z,989.01
2023-01-12T08:47:41.265Z,989.12
2023-01-12T08:48:41.245Z,988.97
2023-01-12T08:49:41.236Z,989.04
2023-01-12T08:50:41.226Z,989.10
2023-01-12T08:51:41.233Z,989.09
2023-01-12T08:52:41.206Z,989.07
2023-01-12T08:53:41.205Z,989.06
2023-01-12T08:54:41.187Z,989.14
2023-01-12T08:55:41.178Z,989.25
2023-01-12T08:56:41.179Z,989.06
2023-01-12T08:57:41.158Z,989.01
2023-01-12T08:58:41.138Z,989.09
2023-01-12T08:59:41.154Z,989.10
2023-01-12T09:00:41.135Z,989.04
2023-01-12T09:01:41.357Z,989.12
2023-01-12T09:02:41.156Z,989.03
2023-01-12T09:03:41.101Z,989.07
2023-01-12T09:04:41.105Z,989.02
2023-01-12T09:05:41.072Z,989.01
2023-01-12T09:06:41.072Z,989.06
2023-01-12T09:07:41.052Z,989.04
2023-01-12T09:08:41.042Z,989.11
2023-01-12T09:09:41.043Z,988.95
2023-01-12T09:10:41.015Z,989.06
2023-01-12T09:11:41.022Z,989.50
2023-01-12T09:12:40.992Z,989.06
2023-01-12T09:13:40.998Z,989.00
2023-01-12T09:14:40.975Z,989.07
2023-01-12T09:15:41.168Z,989.07
2023-01-12T09:16:41.004Z,989.17
2023-01-12T09:17:40.945Z,989.11
2023-01-12T09:18:40.938Z,989.47
2023-01-12T09:19:40.935Z,989.12
2023-01-12T09:20:40.906Z,989.10
2023-01-12T09:21:40.926Z,989.14
2023-01-12T09:22:40.905Z,989.20
2023-01-12T09:23:40.885Z,989.16
2023-01-12T09:24:40.868Z,989.08
2023-01-12T09:25:40.866Z,989.24
2023-01-12T09:26:40.877Z,989.22
2023-01-12T09:27:40.860Z,989.24
2023-01-12T09:28:40.828Z,989.20
2023-01-12T09:29:40.826Z,989.15
2023-01-12T09:30:40.810Z,989.26
2023-01-12T09:31:40.838Z,989.16
2023-01-12T09:32:40.802Z,989.11
2023-01-12T09:33:40.779Z,989.19
2023-01-12T09:34:40.882Z,989.19
2023-01-12T09:35:40.759Z,989.06
2023-01-12T09:36:40.762Z,989.12
2023-01-12T09:37:40.733Z,989.23
2023-01-12T09:38:40.723Z,989.07
2023-01-12T09:39:40.721Z,989.03
2023-01-12T09:40:40.701Z,989.18
2023-01-12T09:41:40.713Z,989.21
2023-01-12T09:42:40.688Z,989.15
2023-01-12T09:43:40.675Z,989.13
2023-01-12T09:44:40.672Z,989.18
2023-01-12T09:45:40.719Z,989.31
2023-01-12T09:46:40.644Z,989.17
2023-01-12T09:47:40.630Z,989.13
2023-01-12T09:48:40.616Z,989.18
2023-01-12T09:49:40.620Z,989.15
2023-01-12T09:50:40.606Z,989.13
2023-01-12T09:51:40.596Z,989.23
2023-01-12T09:52:40.575Z,989.22
2023-01-12T09:53:40.571Z,989.10
2023-01-12T09:54:40.555Z,989.21
2023-01-12T09:55:40.548Z,989.26
2023-01-12T09:56:40.558Z,989.13
2023-01-12T09:57:40.518Z,989.23
2023-01-12T09:58:40.511Z,989.26
2023-01-12T09:59:40.515Z,989.24
2023-01-12T10:00:40.501Z,989.23
2023-01-12T10:01:40.532Z,989.11
2023-01-12T10:02:40.547Z,989.14
2023-01-12T10:03:40.501Z,989.19
2023-01-12T10:04:40.462Z,989.11
2023-01-12T10:05:40.589Z,989.10
2023-01-12T10:06:40.433Z,989.16
2023-01-12T10:07:42.151Z,989.16
2023-01-12T10:08:40.417Z,989.10
2023-01-12T10:09:40.391Z,989.11
2023-01-12T10:10:40.383Z,989.08
2023-01-12T10:11:40.392Z,989.12
2023-01-12T10:12:40.363Z,989.20
2023-01-12T10:13:40.362Z,989.08
2023-01-12T10:14:40.345Z,989.13
2023-01-12T10:15:40.333Z,989.10
2023-01-12T10:16:40.447Z,989.13
2023-01-12T10:17:50.671Z,989.10
2023-01-12T10:18:41.305Z,989.11
2023-01-12T10:19:40.289Z,989.07
2023-01-12T10:20:40.299Z,989.09
2023-01-12T10:21:40.284Z,989.18
2023-01-12T10:22:40.278Z,989.02
2023-01-12T10:23:40.251Z,989.08
2023-01-12T10:24:40.245Z,989.10
2023-01-12T10:25:40.258Z,989.05
2023-01-12T10:26:40.231Z,989.12
2023-01-12T10:27:40.206Z,989.15
2023-01-12T10:28:40.207Z,989.04
2023-01-12T10:29:40.178Z,989.04
2023-01-12T10:30:40.207Z,989.17
2023-01-12T10:31:40.198Z,989.05
2023-01-12T10:32:42.280Z,989.12
2023-01-12T10:33:40.140Z,989.07
2023-01-12T10:34:40.129Z,989.03
2023-01-12T10:35:40.121Z,989.06
2023-01-12T10:36:40.140Z,989.00
2023-01-12T10:37:40.093Z,989.08
2023-01-12T10:38:40.092Z,989.00
2023-01-12T10:39:40.082Z,988.99
2023-01-12T10:40:40.073Z,988.97
2023-01-12T10:41:40.062Z,988.91
2023-01-12T10:42:40.053Z,988.94
2023-01-12T10:43:40.033Z,988.98
2023-01-12T10:44:40.025Z,989.01
2023-01-12T10:45:40.068Z,988.94
2023-01-12T10:46:40.004Z,988.97
2023-01-12T10:47:40.003Z,988.95
2023-01-12T10:48:40.003Z,988.94
2023-01-12T10:49:39.967Z,988.97
2023-01-12T10:50:39.974Z,988.89
2023-01-12T10:51:39.944Z,988.93
2023-01-12T10:52:39.962Z,988.93
2023-01-12T10:53:39.932Z,988.98
2023-01-12T10:54:39.946Z,988.92
2023-01-12T10:55:39.924Z,989.11
2023-01-12T10:56:39.932Z,988.96
2023-01-12T10:57:39.898Z,988.87
2023-01-12T10:58:39.958Z,988.85
2023-01-12T10:59:39.887Z,988.84
2023-01-12T11:00:39.858Z,988.84
2023-01-12T11:01:39.929Z,988.86
2023-01-12T11:02:39.858Z,988.87
2023-01-12T11:03:39.820Z,988.90
2023-01-12T11:04:39.824Z,988.85
2023-01-12T11:05:39.797Z,988.87
2023-01-12T11:06:39.800Z,988.91
2023-01-12T11:07:39.794Z,988.90
2023-01-12T11:08:39.784Z,988.84
2023-01-12T11:09:39.762Z,988.82
2023-01-12T11:10:39.753Z,988.85
2023-01-12T11:11:39.736Z,988.83
2023-01-12T11:12:39.746Z,988.84
2023-01-12T11:13:39.711Z,988.77
2023-01-12T11:14:39.710Z,988.84
2023-01-12T11:15:39.704Z,988.80
2023-01-12T11:16:39.722Z,988.73
2023-01-12T11:17:39.725Z,988.83
2023-01-12T11:18:39.682Z,988.88
2023-01-12T11:19:39.649Z,988.75
2023-01-12T11:20:39.676Z,988.77
2023-01-12T11:21:39.636Z,988.71
2023-01-12T11:22:39.636Z,988.82
2023-01-12T11:23:39.628Z,988.76
2023-01-12T11:24:39.605Z,988.71
2023-01-12T11:25:39.598Z,988.66
2023-01-12T11:26:39.587Z,988.79
2023-01-12T11:27:39.579Z,988.74
2023-01-12T11:28:39.576Z,988.76
2023-01-12T11:29:39.547Z,988.81
2023-01-12T11:30:39.572Z,988.72
2023-01-12T11:31:39.538Z,988.72
2023-01-12T11:32:39.540Z,988.78
2023-01-12T11:33:39.514Z,988.70
2023-01-12T11:34:39.501Z,988.80
2023-01-12T11:35:39.487Z,988.76
2023-01-12T11:36:39.481Z,988.70
2023-01-12T11:37:39.481Z,988.76
2023-01-12T11:38:39.458Z,988.67
2023-01-12T11:39:39.447Z,988.75
2023-01-12T11:40:39.451Z,988.72
2023-01-12T11:41:39.436Z,988.55
2023-01-12T11:42:39.446Z,988.67
2023-01-12T11:43:39.402Z,988.55
2023-01-12T11:44:39.396Z,988.65
2023-01-12T11:45:39.385Z,988.55
2023-01-12T11:46:39.372Z,988.64
2023-01-12T11:47:41.615Z,988.59
2023-01-12T11:48:39.355Z,988.57
2023-01-12T11:49:39.338Z,988.50
2023-01-12T11:50:39.337Z,988.59
2023-01-12T11:51:39.323Z,988.56
2023-01-12T11:52:39.326Z,988.52
2023-01-12T11:53:41.414Z,988.47
2023-01-12T11:54:39.287Z,988.59
2023-01-12T11:55:39.274Z,988.52
2023-01-12T11:56:39.304Z,988.54
2023-01-12T11:57:39.266Z,988.59
2023-01-12T11:58:39.264Z,988.61
2023-01-12T11:59:41.539Z,988.57
2023-01-12T12:00:39.229Z,988.53
2023-01-12T12:01:39.208Z,988.59
2023-01-12T12:02:39.292Z,988.49
2023-01-12T12:03:39.245Z,988.59
2023-01-12T12:04:39.180Z,988.58
2023-01-12T12:05:41.271Z,988.56
2023-01-12T12:06:39.160Z,988.46
2023-01-12T12:07:39.161Z,988.48
2023-01-12T12:08:39.139Z,988.49
2023-01-12T12:09:39.121Z,988.53
2023-01-12T12:10:39.129Z,988.52
2023-01-12T12:11:41.717Z,988.46
2023-01-12T12:12:39.123Z,988.48
2023-01-12T12:13:39.086Z,988.37
2023-01-12T12:14:39.081Z,988.40
2023-01-12T12:15:39.096Z,988.35
2023-01-12T12:16:39.053Z,988.46
2023-01-12T12:17:41.665Z,988.33
2023-01-12T12:18:39.036Z,988.39
2023-01-12T12:19:39.014Z,988.47
2023-01-12T12:20:39.018Z,988.45
2023-01-12T12:21:39.005Z,988.42
2023-01-12T12:22:39.012Z,988.42
2023-01-12T12:23:40.695Z,988.44
2023-01-12T12:24:38.988Z,988.43
2023-01-12T12:25:38.957Z,988.35
2023-01-12T12:26:38.951Z,988.38
2023-01-12T12:27:38.947Z,988.38
2023-01-12T12:28:38.954Z,988.42